Time;durP1;ratioP1;P1;durP2;ratioP2;P2;SDS_P1;SDS_P2;PMS_P1;PMS_P2;Temp;Humidity;BMP_temperature;BMP_pressure;BME280_temperature;BME280_humidity;BME280_pressure;Samples;Min_cycle;Max_cycle;Signal;HPM_P1;HPM_P2
2020/12/03 00:02:19;;;;;;;33.67;18.17;;;2.20;99.90;;;;;;5028757;28;20025;-76
2020/12/03 00:04:48;;;;;;;36.33;17.65;;;2.20;99.90;;;;;;5016628;28;20043;-77
2020/12/03 00:07:13;;;;;;;40.33;19.33;;;2.10;99.90;;;;;;5035326;28;20017;-76
2020/12/03 00:09:42;;;;;;;36.47;18.98;;;2.10;99.90;;;;;;5039347;28;20113;-76
2020/12/03 00:12:10;;;;;;;35.58;18.20;;;2.10;99.90;;;;;;5030010;28;20018;-76
2020/12/03 00:14:36;;;;;;;41.90;20.10;;;2.10;99.90;;;;;;5031447;28;20037;-76
2020/12/03 00:17:01;;;;;;;36.50;18.40;;;2.10;99.90;;;;;;5033024;28;20505;-76
2020/12/03 00:19:32;;;;;;;42.65;19.73;;;2.10;99.90;;;;;;5036356;28;20450;-76
2020/12/03 00:21:59;;;;;;;37.85;19.52;;;2.10;99.90;;;;;;5035583;28;20045;-76
2020/12/03 00:24:30;;;;;;;42.15;20.83;;;2.10;99.90;;;;;;5015793;28;20049;-76
2020/12/03 00:26:56;;;;;;;38.17;19.55;;;2.10;99.90;;;;;;5021775;28;20022;-76
2020/12/03 00:29:22;;;;;;;36.92;19.13;;;2.10;99.90;;;;;;5031755;28;20029;-76
2020/12/03 00:31:48;;;;;;;34.88;18.27;;;2.10;99.90;;;;;;5031642;28;20025;-76
2020/12/03 00:34:16;;;;;;;33.28;16.83;;;2.10;99.90;;;;;;5027833;28;20061;-76
2020/12/03 00:36:44;;;;;;;39.50;19.55;;;2.10;99.90;;;;;;5031798;28;20056;-76
2020/12/03 00:39:12;;;;;;;36.83;19.58;;;2.10;99.90;;;;;;5032501;28;20363;-76
2020/12/03 00:41:38;;;;;;;34.00;19.27;;;2.10;99.90;;;;;;5033954;28;20029;-76
2020/12/03 00:44:07;;;;;;;36.92;19.05;;;2.20;99.90;;;;;;5031639;28;20375;-76
2020/12/03 00:46:33;;;;;;;37.35;19.15;;;2.20;99.90;;;;;;5033553;28;20156;-76
2020/12/03 00:49:01;;;;;;;35.00;18.45;;;2.20;99.90;;;;;;5036593;28;20115;-76
2020/12/03 00:51:27;;;;;;;48.17;21.80;;;2.10;99.90;;;;;;5032660;28;20183;-76
2020/12/03 00:53:55;;;;;;;41.92;20.70;;;2.10;99.90;;;;;;5015309;28;20100;-76
2020/12/03 00:56:23;;;;;;;42.42;21.88;;;2.10;99.90;;;;;;5033055;28;20055;-76
2020/12/03 00:58:49;;;;;;;39.00;19.65;;;2.10;99.90;;;;;;5034345;28;20091;-75
2020/12/03 01:01:19;;;;;;;43.28;20.88;;;2.10;99.90;;;;;;5031643;28;20579;-76
2020/12/03 01:03:48;;;;;;;37.47;19.25;;;2.10;99.90;;;;;;5030589;28;20079;-76
2020/12/03 01:06:14;;;;;;;39.00;19.15;;;2.10;99.90;;;;;;5031902;28;20029;-76
2020/12/03 01:08:39;;;;;;;35.80;18.27;;;2.00;99.90;;;;;;5032639;28;20186;-75
2020/12/03 01:11:08;;;;;;;41.80;19.15;;;2.10;99.90;;;;;;5031616;28;20394;-76
2020/12/03 01:13:33;;;;;;;39.47;19.27;;;2.00;99.90;;;;;;5026069;28;20033;-76
2020/12/03 01:15:59;;;;;;;40.42;20.85;;;2.00;99.90;;;;;;5031094;28;20413;-75
2020/12/03 01:18:30;;;;;;;45.45;21.42;;;2.00;99.90;;;;;;5035622;28;20087;-76
2020/12/03 01:20:55;;;;;;;43.85;20.17;;;1.90;99.90;;;;;;5031712;28;20037;-76
2020/12/03 01:23:21;;;;;;;39.90;20.80;;;1.90;99.90;;;;;;5033037;28;20030;-75
2020/12/03 01:25:49;;;;;;;42.17;20.98;;;2.00;99.90;;;;;;5029326;28;20116;-76
2020/12/03 01:28:17;;;;;;;42.97;20.45;;;2.00;99.90;;;;;;5027929;28;20615;-76
2020/12/03 01:30:42;;;;;;;44.08;21.20;;;2.00;99.90;;;;;;5034716;28;20040;-76
2020/12/03 01:33:10;;;;;;;46.60;20.95;;;2.00;99.90;;;;;;5025766;28;20089;-75
2020/12/03 01:35:38;;;;;;;40.30;19.77;;;2.00;99.90;;;;;;5030170;28;20037;-75
2020/12/03 01:38:04;;;;;;;47.78;21.10;;;2.00;99.90;;;;;;5027579;28;20033;-76
2020/12/03 01:40:29;;;;;;;43.97;21.58;;;2.00;99.90;;;;;;5027158;28;20426;-75
2020/12/03 01:42:57;;;;;;;42.03;21.30;;;2.00;99.90;;;;;;5027987;28;20440;-76
2020/12/03 01:45:49;;;;;;;41.05;20.15;;;2.00;99.90;;;;;;5030035;28;20044;-75
2020/12/03 01:48:30;;;;;;;31.60;16.35;;;2.10;99.90;;;;;;5026515;28;20383;-76
2020/12/03 01:50:56;;;;;;;48.45;21.65;;;2.10;99.90;;;;;;5025422;28;20135;-75
2020/12/03 01:53:22;;;;;;;46.17;22.08;;;2.00;99.90;;;;;;5014867;28;20076;-75
2020/12/03 01:55:48;;;;;;;41.67;20.77;;;1.90;99.90;;;;;;5015352;28;20030;-75
2020/12/03 01:58:38;;;;;;;49.33;22.50;;;2.00;99.90;;;;;;5029140;28;20036;-76
2020/12/03 02:01:04;;;;;;;38.45;19.55;;;1.90;99.90;;;;;;5027562;28;20076;-75
2020/12/03 02:03:30;;;;;;;40.15;20.27;;;1.90;99.90;;;;;;5029163;28;20500;-75
2020/12/03 02:05:55;;;;;;;40.15;19.60;;;1.90;99.90;;;;;;5032214;28;20033;-75
2020/12/03 02:08:23;;;;;;;36.70;19.42;;;1.90;99.90;;;;;;5030703;28;20017;-75
2020/12/03 02:10:49;;;;;;;42.85;20.45;;;1.90;99.90;;;;;;5028759;28;20560;-75
2020/12/03 02:13:15;;;;;;;40.53;19.70;;;1.90;99.90;;;;;;5026137;28;20032;-76
2020/12/03 02:15:40;;;;;;;36.25;19.25;;;2.00;99.90;;;;;;5025514;28;20034;-75
2020/12/03 02:18:09;;;;;;;38.90;19.17;;;1.90;99.90;;;;;;5029857;28;20021;-75
2020/12/03 02:20:34;;;;;;;40.53;19.45;;;2.00;99.90;;;;;;5027548;28;20053;-75
2020/12/03 02:23:06;;;;;;;34.83;18.70;;;2.00;99.90;;;;;;5034914;28;20034;-75
2020/12/03 02:25:34;;;;;;;34.60;17.30;;;2.00;99.90;;;;;;5043955;28;20029;-75
2020/12/03 02:27:59;;;;;;;35.85;18.02;;;2.00;99.90;;;;;;5025878;28;20032;-75
2020/12/03 02:30:25;;;;;;;31.20;16.90;;;2.00;99.90;;;;;;5027821;28;20026;-75
2020/12/03 02:32:51;;;;;;;35.53;18.40;;;1.90;99.90;;;;;;5031306;28;20100;-75
2020/12/03 02:35:16;;;;;;;34.08;17.67;;;2.00;99.90;;;;;;5032557;28;20065;-75
2020/12/03 02:37:42;;;;;;;36.22;17.40;;;2.00;99.90;;;;;;5026335;28;20037;-75
2020/12/03 02:40:08;;;;;;;35.80;18.33;;;1.90;99.90;;;;;;5029058;28;20037;-75
2020/12/03 02:42:37;;;;;;;35.05;17.58;;;1.90;99.90;;;;;;5032945;28;20575;-75
2020/12/03 02:45:02;;;;;;;32.05;17.35;;;1.90;99.90;;;;;;5012556;28;20038;-75
2020/12/03 02:47:28;;;;;;;35.75;18.30;;;1.90;99.90;;;;;;5026055;28;20100;-75
2020/12/03 02:49:54;;;;;;;34.97;18.65;;;1.90;99.90;;;;;;5025511;28;20084;-75
2020/12/03 02:52:26;;;;;;;37.50;18.85;;;1.90;99.90;;;;;;5028024;28;20029;-75
2020/12/03 02:54:52;;;;;;;37.67;18.75;;;1.90;99.90;;;;;;5032400;28;20546;-75
2020/12/03 02:57:18;;;;;;;39.35;18.60;;;1.90;99.90;;;;;;5025826;28;20033;-75
2020/12/03 02:59:43;;;;;;;34.88;17.38;;;1.80;99.90;;;;;;5030998;28;20029;-75
2020/12/03 03:02:09;;;;;;;37.95;19.13;;;1.80;99.90;;;;;;5029100;28;20036;-75
2020/12/03 03:04:37;;;;;;;35.70;18.08;;;1.80;99.90;;;;;;5028388;28;20045;-75
2020/12/03 03:07:06;;;;;;;41.28;20.02;;;1.90;99.90;;;;;;5035204;28;20060;-75
2020/12/03 03:09:31;;;;;;;37.03;19.00;;;1.90;99.90;;;;;;5030624;28;20041;-75
2020/12/03 03:11:57;;;;;;;35.05;17.90;;;1.80;99.90;;;;;;5027582;28;20678;-75
2020/12/03 03:14:23;;;;;;;38.97;20.40;;;1.80;99.90;;;;;;5016971;28;20018;-75
2020/12/03 03:16:51;;;;;;;39.75;19.60;;;1.80;99.90;;;;;;5033374;28;20044;-75
2020/12/03 03:19:19;;;;;;;40.70;20.60;;;1.90;99.90;;;;;;5033560;28;20486;-75
2020/12/03 03:21:47;;;;;;;39.92;20.17;;;1.90;99.90;;;;;;5003027;28;20443;-75
2020/12/03 03:24:18;;;;;;;45.08;21.00;;;1.90;99.90;;;;;;5034791;28;20064;-76
2020/12/03 03:26:46;;;;;;;44.75;21.50;;;2.00;99.90;;;;;;5029377;28;20025;-75
2020/12/03 03:29:12;;;;;;;41.92;20.27;;;2.00;99.90;;;;;;5017438;28;20044;-75
2020/12/03 03:31:38;;;;;;;54.85;22.98;;;1.90;99.90;;;;;;5027458;28;20018;-75
2020/12/03 03:34:03;;;;;;;45.63;21.08;;;2.00;99.90;;;;;;5030121;28;20542;-75
2020/12/03 03:36:34;;;;;;;49.20;23.00;;;1.90;99.90;;;;;;5027343;28;20182;-75
2020/12/03 03:38:59;;;;;;;55.20;23.98;;;1.90;99.90;;;;;;5034144;28;20037;-76
2020/12/03 03:41:25;;;;;;;52.38;23.17;;;1.80;99.90;;;;;;5030070;28;20032;-75
2020/12/03 03:43:51;;;;;;;45.80;21.67;;;1.80;99.90;;;;;;5028303;28;20033;-75
2020/12/03 03:46:16;;;;;;;50.67;23.13;;;1.70;99.90;;;;;;5034362;28;20055;-75
2020/12/03 03:48:42;;;;;;;53.13;23.48;;;1.80;99.90;;;;;;5029857;28;20029;-75
2020/12/03 03:51:10;;;;;;;53.95;23.17;;;1.80;99.90;;;;;;5031498;28;20477;-75
2020/12/03 03:53:38;;;;;;;58.00;24.08;;;1.80;99.90;;;;;;5028402;28;20040;-76
2020/12/03 03:56:03;;;;;;;47.28;22.00;;;1.80;99.90;;;;;;5028285;28;20025;-75
2020/12/03 03:58:29;;;;;;;51.45;22.08;;;1.80;99.90;;;;;;5033974;28;20505;-75
2020/12/03 04:00:58;;;;;;;60.08;23.80;;;1.90;99.90;;;;;;5033270;28;20680;-76
2020/12/03 04:03:24;;;;;;;51.50;22.75;;;1.90;99.90;;;;;;5029901;28;20443;-75
2020/12/03 04:05:51;;;;;;;43.08;20.02;;;1.70;99.90;;;;;;5029175;28;20041;-75
2020/12/03 04:08:17;;;;;;;54.45;22.88;;;1.80;99.90;;;;;;5033300;28;20514;-75
2020/12/03 04:10:43;;;;;;;47.78;21.20;;;1.80;99.90;;;;;;5026066;28;20048;-75
2020/12/03 04:13:09;;;;;;;49.63;22.52;;;1.80;99.90;;;;;;5030167;28;20020;-75
2020/12/03 04:15:35;;;;;;;47.40;20.90;;;1.80;99.90;;;;;;5026520;28;20033;-75
2020/12/03 04:18:00;;;;;;;49.40;21.77;;;1.90;99.90;;;;;;5030543;28;20045;-75
2020/12/03 04:20:31;;;;;;;38.13;19.27;;;1.90;99.90;;;;;;5025230;28;20036;-75
2020/12/03 04:22:59;;;;;;;55.15;22.42;;;1.90;99.90;;;;;;5026051;28;20052;-75
2020/12/03 04:25:24;;;;;;;54.03;22.05;;;1.90;99.90;;;;;;5027492;28;20434;-75
2020/12/03 04:27:50;;;;;;;49.78;21.73;;;1.80;99.90;;;;;;5028311;28;20026;-75
2020/12/03 04:30:16;;;;;;;52.03;21.23;;;1.90;99.90;;;;;;5028272;28;20478;-75
2020/12/03 04:32:41;;;;;;;49.03;21.00;;;1.80;99.90;;;;;;5029249;28;20017;-75
2020/12/03 04:35:07;;;;;;;52.95;21.40;;;1.80;99.90;;;;;;5024226;28;20033;-75
2020/12/03 04:37:35;;;;;;;44.35;20.08;;;1.80;99.90;;;;;;5027109;28;20025;-75
2020/12/03 04:40:01;;;;;;;60.20;22.00;;;1.80;99.90;;;;;;5028938;28;20034;-75
2020/12/03 04:42:31;;;;;;;58.95;20.42;;;1.80;99.90;;;;;;5028400;28;20036;-75
2020/12/03 04:45:14;;;;;;;43.58;19.80;;;1.80;99.90;;;;;;5027145;28;20032;-75
2020/12/03 04:48:25;;;;;;;48.03;20.35;;;1.80;99.90;;;;;;5033989;28;20080;-75
2020/12/03 04:51:22;;;;;;;49.78;20.90;;;1.80;99.90;;;;;;5024788;28;20037;-75
2020/12/03 04:54:00;;;;;;;51.28;20.90;;;1.80;99.90;;;;;;5001118;28;20057;-75
2020/12/03 04:57:10;;;;;;;46.22;19.65;;;1.80;99.90;;;;;;5030807;28;20100;-75
2020/12/03 04:59:57;;;;;;;54.90;22.10;;;1.80;99.90;;;;;;5040786;28;20041;-75
2020/12/03 05:02:34;;;;;;;49.67;20.48;;;1.80;99.90;;;;;;5043182;28;20046;-75
2020/12/03 05:05:24;;;;;;;45.30;19.23;;;1.80;99.90;;;;;;5026888;28;20033;-75
2020/12/03 05:07:58;;;;;;;47.28;18.52;;;1.80;99.90;;;;;;5028221;28;20119;-75
2020/12/03 05:10:40;;;;;;;62.40;19.15;;;1.70;99.90;;;;;;5030384;28;20522;-75
2020/12/03 05:13:20;;;;;;;40.10;17.60;;;1.80;99.90;;;;;;5032330;28;20091;-75
2020/12/03 05:15:50;;;;;;;49.40;19.92;;;1.80;99.90;;;;;;5014152;28;20055;-75
2020/12/03 05:18:43;;;;;;;40.10;17.73;;;1.90;99.90;;;;;;5029126;28;20422;-75
2020/12/03 05:21:11;;;;;;;48.70;19.85;;;1.80;99.90;;;;;;5032547;28;20072;-76
2020/12/03 05:23:42;;;;;;;43.70;17.20;;;1.80;99.90;;;;;;5042521;28;20115;-75
2020/12/03 05:26:21;;;;;;;48.22;20.27;;;1.80;99.90;;;;;;5027668;28;20459;-75
2020/12/03 05:28:49;;;;;;;51.13;19.60;;;1.70;99.90;;;;;;5027563;28;20022;-75
2020/12/03 05:31:21;;;;;;;46.08;19.33;;;1.80;99.90;;;;;;5029521;28;20037;-76
2020/12/03 05:33:46;;;;;;;51.05;19.58;;;1.80;99.90;;;;;;5026694;28;20092;-75
2020/12/03 05:36:32;;;;;;;45.58;19.17;;;1.70;99.90;;;;;;5027490;28;20128;-76
2020/12/03 05:38:59;;;;;;;41.55;19.08;;;1.80;99.90;;;;;;5026979;28;20040;-75
2020/12/03 05:41:25;;;;;;;42.67;18.90;;;1.80;99.90;;;;;;5026928;28;20021;-75
2020/12/03 05:43:53;;;;;;;104.95;20.60;;;1.80;99.90;;;;;;5026956;28;20091;-75
2020/12/03 05:46:22;;;;;;;69.38;21.08;;;1.80;99.90;;;;;;5025907;28;20059;-75
2020/12/03 05:48:59;;;;;;;43.20;19.15;;;1.80;99.90;;;;;;5042110;28;20442;-75
2020/12/03 05:51:30;;;;;;;38.88;17.27;;;1.80;99.90;;;;;;5027413;28;20116;-75
2020/12/03 05:54:00;;;;;;;43.55;18.52;;;1.80;99.90;;;;;;5026533;28;20045;-75
2020/12/03 05:56:31;;;;;;;41.70;17.63;;;1.80;99.90;;;;;;5016367;28;20087;-75
2020/12/03 05:59:10;;;;;;;43.72;19.67;;;1.80;99.90;;;;;;5026392;28;20629;-75
2020/12/03 06:01:35;;;;;;;44.83;19.60;;;1.80;99.90;;;;;;5045527;28;20049;-76
2020/12/03 06:04:24;;;;;;;52.00;19.52;;;1.80;99.90;;;;;;5027742;28;20470;-75
2020/12/03 06:07:05;;;;;;;43.72;18.35;;;1.70;99.90;;;;;;5048284;28;20026;-75
2020/12/03 06:09:49;;;;;;;41.97;17.10;;;1.70;99.90;;;;;;5027145;28;20360;-75
2020/12/03 06:12:52;;;;;;;36.17;16.90;;;1.70;99.90;;;;;;5027491;28;20025;-75
2020/12/03 06:15:44;;;;;;;34.08;15.20;;;1.70;99.90;;;;;;5026886;28;20055;-76
2020/12/03 06:18:40;;;;;;;43.88;17.80;;;1.70;99.90;;;;;;5029007;28;20044;-75
2020/12/03 06:21:35;;;;;;;49.03;19.20;;;1.70;99.90;;;;;;5017103;28;20383;-75
2020/12/03 06:24:14;;;;;;;41.95;17.67;;;1.70;99.90;;;;;;5030120;28;20124;-75
2020/12/03 06:27:06;;;;;;;45.92;18.98;;;1.70;99.90;;;;;;5025841;28;20029;-75
2020/12/03 06:29:32;;;;;;;36.35;17.95;;;1.70;99.90;;;;;;5017767;28;20468;-75
2020/12/03 06:32:30;;;;;;;46.95;18.65;;;1.70;99.90;;;;;;5023004;28;20021;-75
2020/12/03 06:35:09;;;;;;;43.45;18.40;;;1.70;99.90;;;;;;5031850;28;20088;-75
2020/12/03 06:37:40;;;;;;;40.28;17.75;;;1.70;99.90;;;;;;5054088;28;20026;-75
2020/12/03 06:40:14;;;;;;;53.80;20.95;;;1.70;99.90;;;;;;5050681;28;20163;-76
2020/12/03 06:42:52;;;;;;;43.58;18.20;;;1.70;99.90;;;;;;5020545;28;20044;-75
2020/12/03 06:45:56;;;;;;;40.08;18.88;;;1.80;99.90;;;;;;5033061;28;20116;-75
2020/12/03 06:48:38;;;;;;;46.60;19.67;;;1.80;99.90;;;;;;5033302;28;20034;-75
2020/12/03 06:51:25;;;;;;;48.58;20.05;;;1.80;99.90;;;;;;5054803;28;20026;-75
2020/12/03 06:54:11;;;;;;;40.20;18.85;;;1.70;99.90;;;;;;5032343;28;20057;-75
2020/12/03 06:56:57;;;;;;;47.58;18.90;;;1.70;99.90;;;;;;5028120;28;20097;-75
2020/12/03 06:59:51;;;;;;;47.47;19.70;;;1.70;99.90;;;;;;5030204;28;20125;-75
2020/12/03 07:02:29;;;;;;;38.17;17.83;;;1.70;99.90;;;;;;5036093;28;20095;-75
2020/12/03 07:05:04;;;;;;;36.00;16.73;;;1.70;99.90;;;;;;5031786;28;20498;-75
2020/12/03 07:07:52;;;;;;;41.55;18.13;;;1.60;99.90;;;;;;5033494;28;20029;-75
2020/12/03 07:10:55;;;;;;;40.78;18.20;;;1.70;99.90;;;;;;5031753;28;20032;-76
2020/12/03 07:13:57;;;;;;;39.55;17.67;;;1.70;99.90;;;;;;5031890;28;20091;-75
2020/12/03 07:16:28;;;;;;;34.88;17.40;;;1.70;99.90;;;;;;5037964;28;20424;-75
2020/12/03 07:19:05;;;;;;;36.35;17.13;;;1.60;99.90;;;;;;5031982;28;20040;-75
2020/12/03 07:22:04;;;;;;;45.10;21.20;;;1.70;99.90;;;;;;5011417;28;20111;-76
2020/12/03 07:24:33;;;;;;;32.65;15.85;;;1.70;99.90;;;;;;5032191;28;20048;-76
2020/12/03 07:27:08;;;;;;;35.85;17.77;;;1.70;99.90;;;;;;5029465;28;20393;-76
2020/12/03 07:29:39;;;;;;;38.38;18.83;;;1.70;99.90;;;;;;5029146;28;20022;-76
2020/12/03 07:32:18;;;;;;;27.70;13.43;;;1.70;99.90;;;;;;5032198;28;20025;-76
2020/12/03 07:34:48;;;;;;;45.40;20.25;;;1.70;99.90;;;;;;5047051;28;20686;-76
2020/12/03 07:37:21;;;;;;;48.58;20.77;;;1.70;99.90;;;;;;5045124;28;21871;-75
2020/12/03 07:39:48;;;;;;;44.72;21.25;;;1.70;99.90;;;;;;5049138;28;20038;-75
2020/12/03 07:42:17;;;;;;;52.10;22.05;;;1.70;99.90;;;;;;5031140;28;20030;-75
2020/12/03 07:44:50;;;;;;;50.67;21.95;;;1.70;99.90;;;;;;5028983;28;20026;-75
2020/12/03 07:47:31;;;;;;;46.88;21.25;;;1.70;99.90;;;;;;5027517;28;20187;-75
2020/12/03 07:50:04;;;;;;;51.42;22.42;;;1.70;99.90;;;;;;5029858;28;20025;-75
2020/12/03 07:52:35;;;;;;;46.38;22.38;;;1.70;99.90;;;;;;5024051;28;20029;-75
2020/12/03 07:55:19;;;;;;;40.95;19.75;;;1.70;99.90;;;;;;5028404;28;20064;-76
2020/12/03 07:57:46;;;;;;;42.53;21.48;;;1.80;99.90;;;;;;5027906;28;20124;-75
2020/12/03 08:00:44;;;;;;;44.95;21.73;;;1.70;99.90;;;;;;5029331;28;20030;-76
2020/12/03 08:03:30;;;;;;;37.67;19.80;;;1.80;99.90;;;;;;5020209;28;20056;-75
2020/12/03 08:06:05;;;;;;;45.53;21.75;;;1.80;99.90;;;;;;5029878;28;20152;-75
2020/12/03 08:08:33;;;;;;;39.15;19.23;;;1.80;99.90;;;;;;5032063;28;20033;-75
2020/12/03 08:11:01;;;;;;;37.72;19.10;;;1.80;99.90;;;;;;5034571;28;20021;-75
2020/12/03 08:13:40;;;;;;;48.78;22.45;;;1.80;99.90;;;;;;5028489;28;20021;-75
2020/12/03 08:16:07;;;;;;;46.28;21.42;;;1.80;99.90;;;;;;5020830;28;20033;-75
2020/12/03 08:18:49;;;;;;;49.17;22.70;;;1.80;99.90;;;;;;5032756;28;20021;-75
2020/12/03 08:21:15;;;;;;;43.55;21.55;;;1.80;99.90;;;;;;5027191;28;20029;-77
2020/12/03 08:23:50;;;;;;;45.08;22.67;;;1.80;99.90;;;;;;5026244;28;20045;-74
2020/12/03 08:26:26;;;;;;;48.15;22.25;;;1.80;99.90;;;;;;5025843;28;20029;-75
2020/12/03 08:28:54;;;;;;;61.30;24.45;;;1.80;99.90;;;;;;5018582;28;20035;-75
2020/12/03 08:31:19;;;;;;;57.53;24.23;;;1.80;99.90;;;;;;5028814;28;20036;-75
2020/12/03 08:33:50;;;;;;;53.55;24.15;;;1.80;99.90;;;;;;5030448;28;20034;-74
2020/12/03 08:36:16;;;;;;;64.07;26.73;;;1.80;99.90;;;;;;5031899;28;20056;-74
2020/12/03 08:38:42;;;;;;;62.58;25.42;;;1.80;99.90;;;;;;5032136;28;20119;-74
2020/12/03 08:41:11;;;;;;;50.08;22.27;;;1.90;99.90;;;;;;5047582;28;20037;-74
2020/12/03 08:43:47;;;;;;;71.95;26.15;;;1.90;99.90;;;;;;5032867;28;20036;-75
2020/12/03 08:46:17;;;;;;;61.75;25.98;;;1.90;99.90;;;;;;5018309;28;20575;-74
2020/12/03 08:48:43;;;;;;;48.75;22.60;;;1.90;99.90;;;;;;5045954;28;20025;-75
2020/12/03 08:51:11;;;;;;;58.65;24.88;;;1.80;99.90;;;;;;5030219;28;20022;-75
2020/12/03 08:53:42;;;;;;;56.88;24.73;;;1.80;99.90;;;;;;5035638;28;20022;-75
2020/12/03 08:56:20;;;;;;;48.53;22.83;;;1.80;99.90;;;;;;5028673;28;20530;-75
2020/12/03 08:59:32;;;;;;;66.28;25.65;;;1.90;99.90;;;;;;5034706;28;20037;-75
2020/12/03 09:02:08;;;;;;;57.67;24.00;;;1.90;99.90;;;;;;5026835;28;20108;-74
2020/12/03 09:04:42;;;;;;;60.47;24.70;;;1.80;99.90;;;;;;5001222;28;20399;-75
2020/12/03 09:07:11;;;;;;;49.03;22.05;;;1.90;99.90;;;;;;5021245;28;20057;-75
2020/12/03 09:09:39;;;;;;;47.65;22.75;;;1.90;99.90;;;;;;5024935;28;20089;-74
2020/12/03 09:12:09;;;;;;;49.95;22.90;;;1.90;99.90;;;;;;5026465;28;20367;-74
2020/12/03 09:14:35;;;;;;;53.80;24.48;;;2.00;99.90;;;;;;5002493;28;20028;-74
2020/12/03 09:17:05;;;;;;;52.50;24.50;;;2.00;99.90;;;;;;5010977;28;20033;-75
2020/12/03 09:19:31;;;;;;;52.17;24.67;;;2.00;99.90;;;;;;5018851;28;20029;-74
2020/12/03 09:21:58;;;;;;;54.22;25.17;;;2.00;99.90;;;;;;5018512;28;20443;-75
2020/12/03 09:24:24;;;;;;;44.58;23.38;;;2.00;99.90;;;;;;5025587;28;20052;-75
2020/12/03 09:26:51;;;;;;;56.90;26.80;;;2.10;99.90;;;;;;5011403;28;20453;-75
2020/12/03 09:29:19;;;;;;;48.67;24.05;;;2.10;99.90;;;;;;5010663;28;20045;-75
2020/12/03 09:31:45;;;;;;;49.55;24.17;;;2.10;99.90;;;;;;5010742;28;20045;-75
2020/12/03 09:34:10;;;;;;;53.78;25.95;;;2.20;99.90;;;;;;5028663;28;20029;-75
2020/12/03 09:36:37;;;;;;;48.03;24.60;;;2.20;99.90;;;;;;5017510;28;20025;-74
2020/12/03 09:39:03;;;;;;;50.65;24.65;;;2.20;99.90;;;;;;5031631;28;20196;-74
2020/12/03 09:41:28;;;;;;;57.20;26.77;;;2.20;99.90;;;;;;5024114;28;20057;-74
2020/12/03 09:43:57;;;;;;;50.10;23.98;;;2.10;99.90;;;;;;5050125;28;20631;-75
2020/12/03 09:46:28;;;;;;;50.60;23.67;;;2.10;99.90;;;;;;5015545;28;20639;-74
2020/12/03 09:48:54;;;;;;;53.92;25.15;;;2.10;99.90;;;;;;5025645;28;20076;-74
2020/12/03 09:51:26;;;;;;;49.50;24.27;;;2.10;99.90;;;;;;5028222;28;20087;-75
2020/12/03 09:53:52;;;;;;;54.65;26.85;;;2.10;99.90;;;;;;5030332;28;20490;-75
2020/12/03 09:56:21;;;;;;;54.90;25.08;;;2.10;99.90;;;;;;5033470;28;20136;-74
2020/12/03 09:58:56;;;;;;;59.55;28.10;;;2.10;99.90;;;;;;5032775;28;20020;-75
2020/12/03 10:01:22;;;;;;;52.55;24.95;;;2.10;99.90;;;;;;5028205;28;20037;-75
2020/12/03 10:04:13;;;;;;;54.33;25.90;;;2.10;99.90;;;;;;5046812;28;20033;-75
2020/12/03 10:06:46;;;;;;;57.17;26.33;;;2.20;99.90;;;;;;5028016;28;20076;-74
2020/12/03 10:09:23;;;;;;;51.78;26.17;;;2.10;99.90;;;;;;5032323;28;20025;-75
2020/12/03 10:12:01;;;;;;;72.00;30.50;;;2.00;99.90;;;;;;5024812;28;20026;-74
2020/12/03 10:14:45;;;;;;;60.42;27.35;;;2.10;99.90;;;;;;5037580;28;20032;-75
2020/12/03 10:17:14;;;;;;;48.60;25.05;;;2.10;99.90;;;;;;5021309;28;20111;-75
2020/12/03 10:19:41;;;;;;;60.10;27.52;;;2.10;99.90;;;;;;5029994;28;20513;-75
2020/12/03 10:22:12;;;;;;;69.18;29.17;;;2.10;99.90;;;;;;5022002;28;20025;-75
2020/12/03 10:24:43;;;;;;;59.60;28.75;;;2.10;99.90;;;;;;5032659;28;20055;-74
2020/12/03 10:27:22;;;;;;;54.30;27.23;;;2.10;99.90;;;;;;5031843;28;20492;-74
2020/12/03 10:29:55;;;;;;;61.28;28.67;;;2.20;99.90;;;;;;5011968;28;20045;-75
2020/12/03 10:32:24;;;;;;;63.90;28.75;;;2.20;99.90;;;;;;5038697;28;20029;-75
2020/12/03 10:34:50;;;;;;;56.28;27.70;;;2.20;99.90;;;;;;5031178;28;20033;-75
2020/12/03 10:37:26;;;;;;;56.63;27.35;;;2.20;99.90;;;;;;5017372;28;20037;-74
2020/12/03 10:40:03;;;;;;;63.75;29.77;;;2.30;99.90;;;;;;5031286;28;20134;-75
2020/12/03 10:42:36;;;;;;;63.83;29.60;;;2.30;99.90;;;;;;5017778;28;20386;-75
2020/12/03 10:45:05;;;;;;;65.10;29.08;;;2.30;99.90;;;;;;5028312;28;20435;-75
2020/12/03 10:47:35;;;;;;;57.42;27.35;;;2.20;99.90;;;;;;5030241;28;20483;-75
2020/12/03 10:50:04;;;;;;;58.35;27.15;;;2.30;99.90;;;;;;5052405;28;20029;-75
2020/12/03 10:52:29;;;;;;;63.63;28.85;;;2.30;99.90;;;;;;5051880;28;20091;-75
2020/12/03 10:55:01;;;;;;;55.58;28.13;;;2.30;99.90;;;;;;5034950;28;20029;-75
2020/12/03 10:57:32;;;;;;;65.75;29.98;;;2.30;99.90;;;;;;5019847;28;20124;-75
2020/12/03 10:59:59;;;;;;;57.75;28.40;;;2.30;99.90;;;;;;5035172;28;20051;-75
2020/12/03 11:02:28;;;;;;;49.92;26.45;;;2.40;99.90;;;;;;5033462;28;20022;-76
2020/12/03 11:04:56;;;;;;;55.45;28.58;;;2.40;99.90;;;;;;5034015;28;20073;-75
2020/12/03 11:07:22;;;;;;;53.00;26.85;;;2.40;99.90;;;;;;5033147;28;20021;-75
2020/12/03 11:09:52;;;;;;;51.03;27.00;;;2.30;99.90;;;;;;5028186;28;20362;-75
2020/12/03 11:12:18;;;;;;;57.38;26.65;;;2.40;99.90;;;;;;5048977;28;20116;-75
2020/12/03 11:14:47;;;;;;;51.22;26.13;;;2.40;99.90;;;;;;5032556;28;20145;-75
2020/12/03 11:17:22;;;;;;;58.20;28.67;;;2.40;99.90;;;;;;5033657;28;20029;-75
2020/12/03 11:19:52;;;;;;;55.25;26.73;;;2.40;99.90;;;;;;5036246;28;20032;-75
2020/12/03 11:22:38;;;;;;;51.45;26.42;;;2.30;99.90;;;;;;5028875;28;20040;-75
2020/12/03 11:25:05;;;;;;;56.45;28.15;;;2.40;99.90;;;;;;5031628;28;20125;-75
2020/12/03 11:27:30;;;;;;;52.53;25.48;;;2.40;99.90;;;;;;5028989;28;20029;-75
2020/12/03 11:29:56;;;;;;;56.03;26.65;;;2.40;99.90;;;;;;5010845;28;20501;-75
2020/12/03 11:32:27;;;;;;;54.83;27.90;;;2.40;99.90;;;;;;5035170;28;20029;-75
2020/12/03 11:34:55;;;;;;;59.25;27.38;;;2.50;99.90;;;;;;5034433;28;20332;-75
2020/12/03 11:37:22;;;;;;;51.92;26.27;;;2.50;99.90;;;;;;5015839;28;20029;-75
2020/12/03 11:39:53;;;;;;;52.03;26.35;;;2.50;99.90;;;;;;5033072;28;20025;-75
2020/12/03 11:50:24;;;;;;;49.53;25.33;;;2.50;99.90;;;;;;5030531;28;20086;-75
2020/12/03 11:52:50;;;;;;;50.45;25.38;;;2.50;99.90;;;;;;5034531;28;20055;-75
2020/12/03 11:55:23;;;;;;;57.00;28.25;;;2.50;99.90;;;;;;5030013;28;20557;-75
2020/12/03 11:57:54;;;;;;;48.25;24.05;;;2.50;99.90;;;;;;5030796;28;20130;-74
2020/12/03 12:00:25;;;;;;;50.88;25.90;;;2.50;99.90;;;;;;5031671;28;20033;-75
2020/12/03 12:02:55;;;;;;;49.97;25.73;;;2.50;99.90;;;;;;4680503;28;10000097;-74
2020/12/03 12:08:27;;;;;;;44.05;23.42;;;2.60;99.90;;;;;;5029549;28;20044;-74
2020/12/03 12:13:20;;;;;;;53.10;26.85;;;2.60;99.90;;;;;;5027139;28;21115;-75
2020/12/03 12:15:46;;;;;;;52.20;28.05;;;2.60;99.90;;;;;;5028325;28;20048;-76
2020/12/03 12:18:12;;;;;;;55.95;26.17;;;2.60;99.90;;;;;;5030065;28;20029;-74
2020/12/03 12:20:38;;;;;;;57.47;29.20;;;2.60;99.90;;;;;;5029525;28;20370;-75
2020/12/03 12:23:04;;;;;;;56.83;26.95;;;2.60;99.90;;;;;;4680308;28;9999772;-76
2020/12/03 12:25:30;;;;;;;58.13;27.83;;;2.60;99.90;;;;;;5003743;28;20054;-75
2020/12/03 12:27:59;;;;;;;61.13;26.98;;;2.60;99.90;;;;;;5022980;28;20113;-75
2020/12/03 12:30:25;;;;;;;54.42;26.77;;;2.70;99.90;;;;;;5026115;28;20018;-75
2020/12/03 12:32:50;;;;;;;61.33;28.13;;;2.60;99.90;;;;;;5029692;28;20826;-75
2020/12/03 12:35:16;;;;;;;51.50;25.50;;;2.60;99.90;;;;;;5023344;28;20037;-75
2020/12/03 12:37:42;;;;;;;56.65;25.42;;;2.60;99.90;;;;;;5025519;28;20052;-75
2020/12/03 12:40:08;;;;;;;47.08;23.63;;;2.70;99.90;;;;;;5013622;28;20375;-75
2020/12/03 12:42:34;;;;;;;52.35;24.73;;;2.70;99.90;;;;;;5023311;28;20029;-75
2020/12/03 12:45:00;;;;;;;59.17;26.45;;;2.70;99.90;;;;;;5029535;28;20048;-75
2020/12/03 12:47:26;;;;;;;64.68;28.60;;;2.80;99.90;;;;;;5029486;28;20034;-75
2020/12/03 12:49:52;;;;;;;53.65;25.63;;;2.70;99.90;;;;;;5018235;28;20418;-75
2020/12/03 12:52:20;;;;;;;54.05;25.95;;;2.70;99.90;;;;;;5031557;28;20025;-75
2020/12/03 12:54:46;;;;;;;50.58;26.63;;;2.70;99.90;;;;;;5033087;28;20017;-75
2020/12/03 12:57:13;;;;;;;51.60;25.83;;;2.70;99.90;;;;;;5030645;28;20163;-76
2020/12/03 12:59:39;;;;;;;51.47;25.17;;;2.70;99.90;;;;;;5033625;28;20029;-76
2020/12/03 13:02:05;;;;;;;57.30;28.33;;;2.80;99.90;;;;;;5031681;28;20036;-75
2020/12/03 13:04:33;;;;;;;49.88;25.83;;;2.80;99.90;;;;;;5011123;28;20477;-75
2020/12/03 13:07:07;;;;;;;57.58;27.83;;;2.70;99.90;;;;;;5026355;28;20048;-75
2020/12/03 13:09:32;;;;;;;47.17;25.95;;;2.80;99.90;;;;;;5032302;28;20025;-75
2020/12/03 13:11:59;;;;;;;50.45;26.25;;;2.80;99.90;;;;;;5029737;28;20021;-76